sensor_id;sensor_type;location;lat;lon;timestamp;temperature;humidity
11436;DHT22;5774;48.778;8.904;2022-07-29T00:01:30;18.70;99.90
11436;DHT22;5774;48.778;8.904;2022-07-29T00:03:57;18.60;99.90
11436;DHT22;5774;48.778;8.904;2022-07-29T00:06:23;18.60;99.90
11436;DHT22;5774;48.778;8.904;2022-07-29T00:08:50;18.50;99.90
11436;DHT22;5774;48.778;8.904;2022-07-29T00:11:17;18.50;99.90
11436;DHT22;5774;48.778;8.904;2022-07-29T00:13:43;18.40;99.90
11436;DHT22;5774;48.778;8.904;2022-07-29T00:16:11;18.50;99.90
11436;DHT22;5774;48.778;8.904;2022-07-29T00:18:38;18.40;99.90
11436;DHT22;5774;48.778;8.904;2022-07-29T00:21:05;18.40;99.90
11436;DHT22;5774;48.778;8.904;2022-07-29T00:23:32;18.40;99.90
11436;DHT22;5774;48.778;8.904;2022-07-29T00:25:59;18.30;99.90
11436;DHT22;5774;48.778;8.904;2022-07-29T00:28:25;18.30;99.90
11436;DHT22;5774;48.778;8.904;2022-07-29T00:30:52;18.30;99.90
11436;DHT22;5774;48.778;8.904;2022-07-29T00:33:20;18.30;99.90
11436;DHT22;5774;48.778;8.904;2022-07-29T00:35:47;18.20;99.90
11436;DHT22;5774;48.778;8.904;2022-07-29T00:38:13;18.30;99.90
11436;DHT22;5774;48.778;8.904;2022-07-29T00:40:43;18.20;99.90
11436;DHT22;5774;48.778;8.904;2022-07-29T00:43:10;18.20;99.90
11436;DHT22;5774;48.778;8.904;2022-07-29T00:45:37;18.20;99.90
11436;DHT22;5774;48.778;8.904;2022-07-29T00:48:04;18.20;99.90
11436;DHT22;5774;48.778;8.904;2022-07-29T00:50:35;18.20;99.90
11436;DHT22;5774;48.778;8.904;2022-07-29T00:53:03;18.20;99.90
11436;DHT22;5774;48.778;8.904;2022-07-29T00:55:30;18.20;99.90
11436;DHT22;5774;48.778;8.904;2022-07-29T00:57:57;18.20;99.90
11436;DHT22;5774;48.778;8.904;2022-07-29T01:00:25;18.20;99.90
11436;DHT22;5774;48.778;8.904;2022-07-29T01:02:53;18.20;99.90
11436;DHT22;5774;48.778;8.904;2022-07-29T01:05:21;18.20;99.90
11436;DHT22;5774;48.778;8.904;2022-07-29T01:07:51;18.20;99.90
11436;DHT22;5774;48.778;8.904;2022-07-29T01:10:19;18.20;99.90
11436;DHT22;5774;48.778;8.904;2022-07-29T01:12:49;18.20;99.90
11436;DHT22;5774;48.778;8.904;2022-07-29T01:15:16;18.10;99.90
11436;DHT22;5774;48.778;8.904;2022-07-29T01:17:44;18.10;99.90
11436;DHT22;5774;48.778;8.904;2022-07-29T01:20:13;18.10;99.90
11436;DHT22;5774;48.778;8.904;2022-07-29T01:22:53;18.20;99.90
11436;DHT22;5774;48.778;8.904;2022-07-29T01:25:58;18.20;99.90
11436;DHT22;5774;48.778;8.904;2022-07-29T01:31:28;18.20;99.90
11436;DHT22;5774;48.778;8.904;2022-07-29T01:34:01;18.20;99.90
11436;DHT22;5774;48.778;8.904;2022-07-29T01:36:31;18.20;99.90
11436;DHT22;5774;48.778;8.904;2022-07-29T01:39:02;18.20;99.90
11436;DHT22;5774;48.778;8.904;2022-07-29T01:41:32;18.20;99.90
11436;DHT22;5774;48.778;8.904;2022-07-29T01:44:02;18.20;99.90
11436;DHT22;5774;48.778;8.904;2022-07-29T01:46:37;18.30;99.90
11436;DHT22;5774;48.778;8.904;2022-07-29T01:49:06;18.30;99.90
11436;DHT22;5774;48.778;8.904;2022-07-29T01:51:35;18.30;99.90
11436;DHT22;5774;48.778;8.904;2022-07-29T01:54:08;18.30;99.90
11436;DHT22;5774;48.778;8.904;2022-07-29T01:56:37;18.30;99.90
11436;DHT22;5774;48.778;8.904;2022-07-29T01:59:06;18.30;99.90
11436;DHT22;5774;48.778;8.904;2022-07-29T02:01:33;18.30;99.90
11436;DHT22;5774;48.778;8.904;2022-07-29T02:04:01;18.30;99.90
11436;DHT22;5774;48.778;8.904;2022-07-29T02:06:29;18.40;99.90
11436;DHT22;5774;48.778;8.904;2022-07-29T02:08:59;18.30;99.90
11436;DHT22;5774;48.778;8.904;2022-07-29T02:11:25;18.30;99.90
11436;DHT22;5774;48.778;8.904;2022-07-29T02:13:52;18.30;99.90
11436;DHT22;5774;48.778;8.904;2022-07-29T02:16:22;18.30;99.90
11436;DHT22;5774;48.778;8.904;2022-07-29T02:18:51;18.30;99.90
11436;DHT22;5774;48.778;8.904;2022-07-29T02:21:20;18.30;99.90
11436;DHT22;5774;48.778;8.904;2022-07-29T02:23:49;18.30;99.90
11436;DHT22;5774;48.778;8.904;2022-07-29T02:26:16;18.30;99.90
11436;DHT22;5774;48.778;8.904;2022-07-29T02:28:44;18.20;99.90
11436;DHT22;5774;48.778;8.904;2022-07-29T02:31:12;18.20;99.90
11436;DHT22;5774;48.778;8.904;2022-07-29T02:33:41;18.20;99.90
11436;DHT22;5774;48.778;8.904;2022-07-29T02:36:08;18.20;99.90
11436;DHT22;5774;48.778;8.904;2022-07-29T02:38:35;18.10;99.90
11436;DHT22;5774;48.778;8.904;2022-07-29T02:41:18;18.10;99.90
11436;DHT22;5774;48.778;8.904;2022-07-29T02:43:47;18.10;99.90
11436;DHT22;5774;48.778;8.904;2022-07-29T02:46:24;18.10;99.90
11436;DHT22;5774;48.778;8.904;2022-07-29T02:48:57;18.00;99.90
11436;DHT22;5774;48.778;8.904;2022-07-29T02:51:28;18.00;99.90
11436;DHT22;5774;48.778;8.904;2022-07-29T02:53:58;18.00;99.90
11436;DHT22;5774;48.778;8.904;2022-07-29T02:56:28;17.90;99.90
11436;DHT22;5774;48.778;8.904;2022-07-29T02:59:01;17.90;99.90
11436;DHT22;5774;48.778;8.904;2022-07-29T03:01:30;17.90;99.90
11436;DHT22;5774;48.778;8.904;2022-07-29T03:04:00;17.90;99.90
11436;DHT22;5774;48.778;8.904;2022-07-29T03:06:28;17.90;99.90
11436;DHT22;5774;48.778;8.904;2022-07-29T03:08:55;17.80;99.90
11436;DHT22;5774;48.778;8.904;2022-07-29T03:11:23;17.80;99.90
11436;DHT22;5774;48.778;8.904;2022-07-29T03:13:51;17.80;99.90
11436;DHT22;5774;48.778;8.904;2022-07-29T03:16:18;17.80;99.90
11436;DHT22;5774;48.778;8.904;2022-07-29T03:18:46;17.80;99.90
11436;DHT22;5774;48.778;8.904;2022-07-29T03:21:14;17.80;99.90
11436;DHT22;5774;48.778;8.904;2022-07-29T03:23:43;17.70;99.90
11436;DHT22;5774;48.778;8.904;2022-07-29T03:26:10;17.70;99.90
11436;DHT22;5774;48.778;8.904;2022-07-29T03:28:37;17.70;99.90
11436;DHT22;5774;48.778;8.904;2022-07-29T03:31:03;17.70;99.90
11436;DHT22;5774;48.778;8.904;2022-07-29T03:33:30;17.70;99.90
11436;DHT22;5774;48.778;8.904;2022-07-29T03:35:57;17.70;99.90
11436;DHT22;5774;48.778;8.904;2022-07-29T03:38:26;17.60;99.90
11436;DHT22;5774;48.778;8.904;2022-07-29T03:40:55;17.60;99.90
11436;DHT22;5774;48.778;8.904;2022-07-29T03:43:23;17.60;99.90
11436;DHT22;5774;48.778;8.904;2022-07-29T03:45:52;17.60;99.90
11436;DHT22;5774;48.778;8.904;2022-07-29T03:48:19;17.50;99.90
11436;DHT22;5774;48.778;8.904;2022-07-29T03:50:48;17.50;99.90
11436;DHT22;5774;48.778;8.904;2022-07-29T03:53:16;17.50;99.90
11436;DHT22;5774;48.778;8.904;2022-07-29T03:55:45;17.50;99.90
11436;DHT22;5774;48.778;8.904;2022-07-29T03:58:15;17.40;99.90
11436;DHT22;5774;48.778;8.904;2022-07-29T04:00:42;17.40;99.90
11436;DHT22;5774;48.778;8.904;2022-07-29T04:03:09;17.40;99.90
11436;DHT22;5774;48.778;8.904;2022-07-29T04:05:36;17.40;99.90
11436;DHT22;5774;48.778;8.904;2022-07-29T04:08:03;17.30;99.90
11436;DHT22;5774;48.778;8.904;2022-07-29T04:10:30;17.30;99.90
11436;DHT22;5774;48.778;8.904;2022-07-29T04:12:59;17.30;99.90
11436;DHT22;5774;48.778;8.904;2022-07-29T04:15:26;17.30;99.90
11436;DHT22;5774;48.778;8.904;2022-07-29T04:17:53;17.30;99.90
11436;DHT22;5774;48.778;8.904;2022-07-29T04:20:20;17.30;99.90
11436;DHT22;5774;48.778;8.904;2022-07-29T04:22:47;17.30;99.90
11436;DHT22;5774;48.778;8.904;2022-07-29T04:25:14;17.30;99.90
11436;DHT22;5774;48.778;8.904;2022-07-29T04:27:40;17.30;99.90
11436;DHT22;5774;48.778;8.904;2022-07-29T04:30:26;17.30;99.90
11436;DHT22;5774;48.778;8.904;2022-07-29T04:32:53;17.30;99.90
11436;DHT22;5774;48.778;8.904;2022-07-29T04:35:20;17.30;99.90
11436;DHT22;5774;48.778;8.904;2022-07-29T04:37:47;17.30;99.90
11436;DHT22;5774;48.778;8.904;2022-07-29T04:40:13;17.30;99.90
11436;DHT22;5774;48.778;8.904;2022-07-29T04:42:40;17.30;99.90
11436;DHT22;5774;48.778;8.904;2022-07-29T04:45:07;17.30;99.90
11436;DHT22;5774;48.778;8.904;2022-07-29T04:47:35;17.30;99.90
11436;DHT22;5774;48.778;8.904;2022-07-29T04:50:02;17.30;99.90
11436;DHT22;5774;48.778;8.904;2022-07-29T04:52:30;17.30;99.90
11436;DHT22;5774;48.778;8.904;2022-07-29T04:54:57;17.30;99.90
11436;DHT22;5774;48.778;8.904;2022-07-29T04:57:23;17.30;99.90
11436;DHT22;5774;48.778;8.904;2022-07-29T04:59:50;17.40;99.90
11436;DHT22;5774;48.778;8.904;2022-07-29T05:02:17;17.40;99.90
11436;DHT22;5774;48.778;8.904;2022-07-29T05:04:45;17.40;99.90
11436;DHT22;5774;48.778;8.904;2022-07-29T05:07:11;17.50;99.90
11436;DHT22;5774;48.778;8.904;2022-07-29T05:09:39;17.50;99.90
11436;DHT22;5774;48.778;8.904;2022-07-29T05:12:06;17.50;99.90
11436;DHT22;5774;48.778;8.904;2022-07-29T05:14:33;17.60;99.90
11436;DHT22;5774;48.778;8.904;2022-07-29T05:17:00;17.60;99.90
11436;DHT22;5774;48.778;8.904;2022-07-29T05:19:27;17.70;99.90
11436;DHT22;5774;48.778;8.904;2022-07-29T05:21:55;17.70;99.90
11436;DHT22;5774;48.778;8.904;2022-07-29T05:24:21;17.80;99.90
11436;DHT22;5774;48.778;8.904;2022-07-29T05:26:48;17.90;99.90
11436;DHT22;5774;48.778;8.904;2022-07-29T05:29:15;17.90;99.90
11436;DHT22;5774;48.778;8.904;2022-07-29T05:31:41;18.00;99.90
11436;DHT22;5774;48.778;8.904;2022-07-29T05:34:08;18.10;99.90
11436;DHT22;5774;48.778;8.904;2022-07-29T05:36:35;18.10;99.90
11436;DHT22;5774;48.778;8.904;2022-07-29T05:39:03;18.20;99.90
11436;DHT22;5774;48.778;8.904;2022-07-29T05:41:31;18.30;99.90
11436;DHT22;5774;48.778;8.904;2022-07-29T05:43:58;18.40;99.90
11436;DHT22;5774;48.778;8.904;2022-07-29T05:46:24;18.40;99.90
11436;DHT22;5774;48.778;8.904;2022-07-29T05:48:51;18.50;99.90
11436;DHT22;5774;48.778;8.904;2022-07-29T05:51:18;18.50;99.90
11436;DHT22;5774;48.778;8.904;2022-07-29T05:53:45;18.60;99.90
11436;DHT22;5774;48.778;8.904;2022-07-29T05:56:13;18.70;99.90
11436;DHT22;5774;48.778;8.904;2022-07-29T05:58:39;18.70;99.90
11436;DHT22;5774;48.778;8.904;2022-07-29T06:01:06;18.90;99.90
11436;DHT22;5774;48.778;8.904;2022-07-29T06:03:33;18.90;99.90
11436;DHT22;5774;48.778;8.904;2022-07-29T06:06:03;19.00;99.90
11436;DHT22;5774;48.778;8.904;2022-07-29T06:08:31;19.20;99.90
11436;DHT22;5774;48.778;8.904;2022-07-29T06:10:58;19.30;99.90
11436;DHT22;5774;48.778;8.904;2022-07-29T06:13:27;19.40;99.90
11436;DHT22;5774;48.778;8.904;2022-07-29T06:15:54;19.40;99.90
11436;DHT22;5774;48.778;8.904;2022-07-29T06:18:20;19.50;99.90
11436;DHT22;5774;48.778;8.904;2022-07-29T06:20:49;19.60;99.90
11436;DHT22;5774;48.778;8.904;2022-07-29T06:23:16;19.70;99.90
11436;DHT22;5774;48.778;8.904;2022-07-29T06:25:42;19.80;99.90
11436;DHT22;5774;48.778;8.904;2022-07-29T06:28:09;19.80;99.90
11436;DHT22;5774;48.778;8.904;2022-07-29T06:30:38;19.90;99.90
11436;DHT22;5774;48.778;8.904;2022-07-29T06:33:05;19.90;99.90
11436;DHT22;5774;48.778;8.904;2022-07-29T06:35:32;19.90;99.90
11436;DHT22;5774;48.778;8.904;2022-07-29T06:38:00;20.00;99.90
11436;DHT22;5774;48.778;8.904;2022-07-29T06:40:27;20.00;99.90
11436;DHT22;5774;48.778;8.904;2022-07-29T06:43:11;20.10;99.90
11436;DHT22;5774;48.778;8.904;2022-07-29T06:45:39;20.30;99.90
11436;DHT22;5774;48.778;8.904;2022-07-29T06:48:08;20.40;99.90
11436;DHT22;5774;48.778;8.904;2022-07-29T06:50:34;20.70;99.90
11436;DHT22;5774;48.778;8.904;2022-07-29T06:53:01;20.90;99.90
11436;DHT22;5774;48.778;8.904;2022-07-29T06:55:28;21.10;99.90
11436;DHT22;5774;48.778;8.904;2022-07-29T06:57:55;21.50;99.90
11436;DHT22;5774;48.778;8.904;2022-07-29T07:00:22;21.70;99.90
11436;DHT22;5774;48.778;8.904;2022-07-29T07:02:50;21.90;99.90
11436;DHT22;5774;48.778;8.904;2022-07-29T07:05:17;22.20;99.90
11436;DHT22;5774;48.778;8.904;2022-07-29T07:07:43;22.50;99.90
11436;DHT22;5774;48.778;8.904;2022-07-29T07:10:10;22.70;99.90
11436;DHT22;5774;48.778;8.904;2022-07-29T07:12:37;22.90;99.90
11436;DHT22;5774;48.778;8.904;2022-07-29T07:15:04;23.10;99.90
11436;DHT22;5774;48.778;8.904;2022-07-29T07:17:32;23.30;99.90
11436;DHT22;5774;48.778;8.904;2022-07-29T07:20:00;23.20;99.90
11436;DHT22;5774;48.778;8.904;2022-07-29T07:22:27;23.20;99.90
11436;DHT22;5774;48.778;8.904;2022-07-29T07:24:53;23.30;99.90
11436;DHT22;5774;48.778;8.904;2022-07-29T07:27:20;23.30;99.90
11436;DHT22;5774;48.778;8.904;2022-07-29T07:29:47;23.40;99.90
11436;DHT22;5774;48.778;8.904;2022-07-29T07:32:13;23.60;99.90
11436;DHT22;5774;48.778;8.904;2022-07-29T07:34:41;23.80;99.90
11436;DHT22;5774;48.778;8.904;2022-07-29T07:37:09;24.10;99.90
11436;DHT22;5774;48.778;8.904;2022-07-29T07:39:36;24.20;99.90
11436;DHT22;5774;48.778;8.904;2022-07-29T07:42:03;24.40;99.90
11436;DHT22;5774;48.778;8.904;2022-07-29T07:44:30;24.50;99.90
11436;DHT22;5774;48.778;8.904;2022-07-29T07:46:56;24.80;99.90
11436;DHT22;5774;48.778;8.904;2022-07-29T07:49:23;24.80;99.90
11436;DHT22;5774;48.778;8.904;2022-07-29T07:51:50;24.80;99.90
11436;DHT22;5774;48.778;8.904;2022-07-29T07:54:19;24.60;99.90
11436;DHT22;5774;48.778;8.904;2022-07-29T07:56:46;24.50;99.90
11436;DHT22;5774;48.778;8.904;2022-07-29T07:59:14;24.50;99.90
11436;DHT22;5774;48.778;8.904;2022-07-29T08:01:40;24.20;99.90
11436;DHT22;5774;48.778;8.904;2022-07-29T08:04:07;24.10;99.90
11436;DHT22;5774;48.778;8.904;2022-07-29T08:06:34;24.00;99.90
11436;DHT22;5774;48.778;8.904;2022-07-29T08:09:02;24.10;99.90
11436;DHT22;5774;48.778;8.904;2022-07-29T08:11:30;24.30;99.90
11436;DHT22;5774;48.778;8.904;2022-07-29T08:13:57;24.40;99.90
11436;DHT22;5774;48.778;8.904;2022-07-29T08:16:24;24.50;99.90
11436;DHT22;5774;48.778;8.904;2022-07-29T08:18:50;24.40;99.90
11436;DHT22;5774;48.778;8.904;2022-07-29T08:21:22;24.20;99.90
11436;DHT22;5774;48.778;8.904;2022-07-29T08:23:50;24.10;99.90
11436;DHT22;5774;48.778;8.904;2022-07-29T08:26:18;24.10;99.90
11436;DHT22;5774;48.778;8.904;2022-07-29T08:28:49;24.00;99.90
11436;DHT22;5774;48.778;8.904;2022-07-29T08:31:16;24.10;99.90
11436;DHT22;5774;48.778;8.904;2022-07-29T08:33:43;24.10;99.90
11436;DHT22;5774;48.778;8.904;2022-07-29T08:36:09;24.20;99.90
11436;DHT22;5774;48.778;8.904;2022-07-29T08:38:38;24.20;99.90
11436;DHT22;5774;48.778;8.904;2022-07-29T08:41:05;24.20;99.90
11436;DHT22;5774;48.778;8.904;2022-07-29T08:43:32;24.20;99.90
11436;DHT22;5774;48.778;8.904;2022-07-29T08:46:03;24.30;99.90
11436;DHT22;5774;48.778;8.904;2022-07-29T08:48:30;24.30;99.90
11436;DHT22;5774;48.778;8.904;2022-07-29T08:50:57;24.30;99.90
11436;DHT22;5774;48.778;8.904;2022-07-29T08:53:25;24.30;99.90
11436;DHT22;5774;48.778;8.904;2022-07-29T08:55:53;24.40;99.90
11436;DHT22;5774;48.778;8.904;2022-07-29T08:58:20;24.40;99.90
11436;DHT22;5774;48.778;8.904;2022-07-29T09:00:48;24.30;99.90
11436;DHT22;5774;48.778;8.904;2022-07-29T09:03:18;24.40;99.90
11436;DHT22;5774;48.778;8.904;2022-07-29T09:05:46;24.40;99.90
11436;DHT22;5774;48.778;8.904;2022-07-29T09:08:13;24.40;99.90
11436;DHT22;5774;48.778;8.904;2022-07-29T09:10:41;24.40;99.90
11436;DHT22;5774;48.778;8.904;2022-07-29T09:13:08;24.40;99.90
11436;DHT22;5774;48.778;8.904;2022-07-29T09:15:35;24.40;99.90
11436;DHT22;5774;48.778;8.904;2022-07-29T09:18:02;24.40;99.90
11436;DHT22;5774;48.778;8.904;2022-07-29T09:20:30;24.50;99.90
11436;DHT22;5774;48.778;8.904;2022-07-29T09:23:11;24.60;99.90
11436;DHT22;5774;48.778;8.904;2022-07-29T09:25:39;24.60;99.90
11436;DHT22;5774;48.778;8.904;2022-07-29T09:28:06;24.60;99.90
11436;DHT22;5774;48.778;8.904;2022-07-29T09:30:34;24.70;99.90
11436;DHT22;5774;48.778;8.904;2022-07-29T09:33:01;24.70;99.90
11436;DHT22;5774;48.778;8.904;2022-07-29T09:35:30;24.80;99.90
11436;DHT22;5774;48.778;8.904;2022-07-29T09:37:57;24.90;99.90
11436;DHT22;5774;48.778;8.904;2022-07-29T09:40:25;25.00;99.90
11436;DHT22;5774;48.778;8.904;2022-07-29T09:42:53;25.10;99.90
11436;DHT22;5774;48.778;8.904;2022-07-29T09:45:26;25.20;99.90
11436;DHT22;5774;48.778;8.904;2022-07-29T09:47:54;25.20;99.90
11436;DHT22;5774;48.778;8.904;2022-07-29T09:50:22;25.20;99.90
11436;DHT22;5774;48.778;8.904;2022-07-29T09:52:52;25.10;99.90
11436;DHT22;5774;48.778;8.904;2022-07-29T09:55:19;25.00;99.90
11436;DHT22;5774;48.778;8.904;2022-07-29T09:57:46;25.00;99.90
11436;DHT22;5774;48.778;8.904;2022-07-29T10:00:14;24.90;99.90
11436;DHT22;5774;48.778;8.904;2022-07-29T10:02:44;24.80;99.90
11436;DHT22;5774;48.778;8.904;2022-07-29T10:05:19;24.80;99.90
11436;DHT22;5774;48.778;8.904;2022-07-29T10:07:48;24.70;99.90
11436;DHT22;5774;48.778;8.904;2022-07-29T10:10:21;24.70;99.90
11436;DHT22;5774;48.778;8.904;2022-07-29T10:12:50;24.70;99.90
11436;DHT22;5774;48.778;8.904;2022-07-29T10:15:18;24.60;99.90
11436;DHT22;5774;48.778;8.904;2022-07-29T10:17:45;24.60;99.90
11436;DHT22;5774;48.778;8.904;2022-07-29T10:20:13;24.60;99.90
11436;DHT22;5774;48.778;8.904;2022-07-29T10:22:40;24.50;99.90
11436;DHT22;5774;48.778;8.904;2022-07-29T10:25:07;24.50;99.90
11436;DHT22;5774;48.778;8.904;2022-07-29T10:27:36;24.40;99.90
11436;DHT22;5774;48.778;8.904;2022-07-29T10:30:04;24.40;99.90
11436;DHT22;5774;48.778;8.904;2022-07-29T10:32:34;24.40;99.90
11436;DHT22;5774;48.778;8.904;2022-07-29T10:35:12;24.30;99.90
11436;DHT22;5774;48.778;8.904;2022-07-29T10:37:47;24.10;99.90
11436;DHT22;5774;48.778;8.904;2022-07-29T10:40:26;23.90;99.90
11436;DHT22;5774;48.778;8.904;2022-07-29T10:43:30;23.60;99.90
11436;DHT22;5774;48.778;8.904;2022-07-29T10:46:02;23.00;99.90
11436;DHT22;5774;48.778;8.904;2022-07-29T10:48:29;22.70;99.90
11436;DHT22;5774;48.778;8.904;2022-07-29T10:50:56;22.50;99.90
11436;DHT22;5774;48.778;8.904;2022-07-29T10:53:45;22.30;99.90
11436;DHT22;5774;48.778;8.904;2022-07-29T10:56:26;22.20;99.90
11436;DHT22;5774;48.778;8.904;2022-07-29T11:01:53;22.10;99.90
11436;DHT22;5774;48.778;8.904;2022-07-29T11:07:20;22.20;99.90
11436;DHT22;5774;48.778;8.904;2022-07-29T11:12:47;22.40;99.90
11436;DHT22;5774;48.778;8.904;2022-07-29T11:15:16;22.60;99.90
11436;DHT22;5774;48.778;8.904;2022-07-29T11:18:03;22.80;99.90
11436;DHT22;5774;48.778;8.904;2022-07-29T11:20:31;23.10;99.90
11436;DHT22;5774;48.778;8.904;2022-07-29T11:22:58;23.20;99.90
11436;DHT22;5774;48.778;8.904;2022-07-29T11:25:25;23.40;99.90
11436;DHT22;5774;48.778;8.904;2022-07-29T11:27:52;23.50;99.90
11436;DHT22;5774;48.778;8.904;2022-07-29T11:30:22;23.70;99.90
11436;DHT22;5774;48.778;8.904;2022-07-29T11:33:28;23.70;99.90
11436;DHT22;5774;48.778;8.904;2022-07-29T11:36:09;23.70;99.90
11436;DHT22;5774;48.778;8.904;2022-07-29T11:38:36;23.70;99.90
11436;DHT22;5774;48.778;8.904;2022-07-29T11:41:19;23.70;99.90
11436;DHT22;5774;48.778;8.904;2022-07-29T11:43:47;23.60;99.90
11436;DHT22;5774;48.778;8.904;2022-07-29T11:46:18;23.60;99.90
11436;DHT22;5774;48.778;8.904;2022-07-29T11:48:59;23.50;99.90
11436;DHT22;5774;48.778;8.904;2022-07-29T11:51:26;23.60;99.90
11436;DHT22;5774;48.778;8.904;2022-07-29T11:53:53;23.70;99.90
11436;DHT22;5774;48.778;8.904;2022-07-29T11:56:20;23.70;99.90
11436;DHT22;5774;48.778;8.904;2022-07-29T11:58:47;23.60;99.90
11436;DHT22;5774;48.778;8.904;2022-07-29T12:01:15;23.60;99.90
11436;DHT22;5774;48.778;8.904;2022-07-29T12:03:46;23.60;99.90
11436;DHT22;5774;48.778;8.904;2022-07-29T12:06:13;23.60;99.90
11436;DHT22;5774;48.778;8.904;2022-07-29T12:08:40;23.60;99.90
11436;DHT22;5774;48.778;8.904;2022-07-29T12:11:14;23.60;99.90
11436;DHT22;5774;48.778;8.904;2022-07-29T12:13:42;23.70;99.90
11436;DHT22;5774;48.778;8.904;2022-07-29T12:16:08;23.70;99.90
11436;DHT22;5774;48.778;8.904;2022-07-29T12:18:36;23.60;99.90
11436;DHT22;5774;48.778;8.904;2022-07-29T12:21:03;23.60;99.90
11436;DHT22;5774;48.778;8.904;2022-07-29T12:23:30;23.60;99.90
11436;DHT22;5774;48.778;8.904;2022-07-29T12:25:57;23.50;99.90
11436;DHT22;5774;48.778;8.904;2022-07-29T12:28:25;23.50;99.90
11436;DHT22;5774;48.778;8.904;2022-07-29T12:30:51;23.50;99.90
11436;DHT22;5774;48.778;8.904;2022-07-29T12:33:19;23.50;99.90
11436;DHT22;5774;48.778;8.904;2022-07-29T12:35:49;23.50;99.90
11436;DHT22;5774;48.778;8.904;2022-07-29T12:38:17;23.50;99.90
11436;DHT22;5774;48.778;8.904;2022-07-29T12:40:44;23.60;99.90
11436;DHT22;5774;48.778;8.904;2022-07-29T12:43:13;23.70;99.90
11436;DHT22;5774;48.778;8.904;2022-07-29T12:45:41;23.80;99.90
11436;DHT22;5774;48.778;8.904;2022-07-29T12:48:09;23.80;99.90
11436;DHT22;5774;48.778;8.904;2022-07-29T12:50:37;23.80;99.90
11436;DHT22;5774;48.778;8.904;2022-07-29T12:53:20;23.80;99.90
11436;DHT22;5774;48.778;8.904;2022-07-29T12:55:47;23.70;99.90
11436;DHT22;5774;48.778;8.904;2022-07-29T12:58:29;23.70;99.90
11436;DHT22;5774;48.778;8.904;2022-07-29T13:01:05;23.70;99.90
11436;DHT22;5774;48.778;8.904;2022-07-29T13:03:43;23.60;99.90
11436;DHT22;5774;48.778;8.904;2022-07-29T13:06:29;23.50;99.90
11436;DHT22;5774;48.778;8.904;2022-07-29T13:08:58;23.50;99.90
11436;DHT22;5774;48.778;8.904;2022-07-29T13:11:29;23.40;99.90
11436;DHT22;5774;48.778;8.904;2022-07-29T13:13:56;23.40;99.90
11436;DHT22;5774;48.778;8.904;2022-07-29T13:16:23;23.40;99.90
11436;DHT22;5774;48.778;8.904;2022-07-29T13:19:02;23.30;99.90
11436;DHT22;5774;48.778;8.904;2022-07-29T13:21:35;23.10;99.90
11436;DHT22;5774;48.778;8.904;2022-07-29T13:24:02;23.00;99.90
11436;DHT22;5774;48.778;8.904;2022-07-29T13:26:29;22.90;99.90
11436;DHT22;5774;48.778;8.904;2022-07-29T13:28:56;23.00;99.90
11436;DHT22;5774;48.778;8.904;2022-07-29T13:31:23;23.10;99.90
11436;DHT22;5774;48.778;8.904;2022-07-29T13:33:50;23.20;99.90
11436;DHT22;5774;48.778;8.904;2022-07-29T13:36:17;23.50;99.90
11436;DHT22;5774;48.778;8.904;2022-07-29T13:38:45;24.00;99.90
11436;DHT22;5774;48.778;8.904;2022-07-29T13:41:11;24.40;99.90
11436;DHT22;5774;48.778;8.904;2022-07-29T13:43:38;24.70;99.90
11436;DHT22;5774;48.778;8.904;2022-07-29T13:46:05;25.00;99.90
11436;DHT22;5774;48.778;8.904;2022-07-29T13:48:31;25.10;99.90
11436;DHT22;5774;48.778;8.904;2022-07-29T13:50:58;25.20;99.90
11436;DHT22;5774;48.778;8.904;2022-07-29T13:53:25;25.30;99.90
11436;DHT22;5774;48.778;8.904;2022-07-29T13:55:54;25.20;99.90
11436;DHT22;5774;48.778;8.904;2022-07-29T13:58:21;25.20;99.90
11436;DHT22;5774;48.778;8.904;2022-07-29T14:00:48;25.20;99.90
11436;DHT22;5774;48.778;8.904;2022-07-29T14:03:14;25.10;99.90
11436;DHT22;5774;48.778;8.904;2022-07-29T14:05:41;25.10;99.90
11436;DHT22;5774;48.778;8.904;2022-07-29T14:08:08;25.10;99.90
11436;DHT22;5774;48.778;8.904;2022-07-29T14:10:35;25.10;99.90
11436;DHT22;5774;48.778;8.904;2022-07-29T14:13:03;25.10;99.90
11436;DHT22;5774;48.778;8.904;2022-07-29T14:15:29;25.10;99.90
11436;DHT22;5774;48.778;8.904;2022-07-29T14:17:56;25.20;99.90
11436;DHT22;5774;48.778;8.904;2022-07-29T14:20:23;25.20;99.90
11436;DHT22;5774;48.778;8.904;2022-07-29T14:22:49;25.20;99.90
11436;DHT22;5774;48.778;8.904;2022-07-29T14:25:16;25.30;99.90
11436;DHT22;5774;48.778;8.904;2022-07-29T14:27:43;25.40;99.90
11436;DHT22;5774;48.778;8.904;2022-07-29T14:30:11;25.60;99.90
11436;DHT22;5774;48.778;8.904;2022-07-29T14:32:38;25.60;99.90
11436;DHT22;5774;48.778;8.904;2022-07-29T14:35:05;25.70;99.90
11436;DHT22;5774;48.778;8.904;2022-07-29T14:37:33;25.80;99.90
11436;DHT22;5774;48.778;8.904;2022-07-29T14:40:00;25.90;99.90
11436;DHT22;5774;48.778;8.904;2022-07-29T14:42:28;26.00;99.90
11436;DHT22;5774;48.778;8.904;2022-07-29T14:44:55;26.10;99.90
11436;DHT22;5774;48.778;8.904;2022-07-29T14:47:23;26.00;99.90
11436;DHT22;5774;48.778;8.904;2022-07-29T14:49:50;26.10;99.90
11436;DHT22;5774;48.778;8.904;2022-07-29T14:52:17;26.10;99.90
11436;DHT22;5774;48.778;8.904;2022-07-29T14:54:43;26.20;99.90
11436;DHT22;5774;48.778;8.904;2022-07-29T14:57:10;26.30;99.90
11436;DHT22;5774;48.778;8.904;2022-07-29T14:59:37;26.30;99.90
11436;DHT22;5774;48.778;8.904;2022-07-29T15:02:04;26.30;99.90
11436;DHT22;5774;48.778;8.904;2022-07-29T15:04:32;26.40;99.90
11436;DHT22;5774;48.778;8.904;2022-07-29T15:06:58;26.50;99.90
11436;DHT22;5774;48.778;8.904;2022-07-29T15:09:25;26.60;99.90
11436;DHT22;5774;48.778;8.904;2022-07-29T15:11:52;26.70;99.90
11436;DHT22;5774;48.778;8.904;2022-07-29T15:14:19;26.80;99.90
11436;DHT22;5774;48.778;8.904;2022-07-29T15:16:45;26.80;99.90
11436;DHT22;5774;48.778;8.904;2022-07-29T15:19:12;26.80;99.90
11436;DHT22;5774;48.778;8.904;2022-07-29T15:21:40;26.80;99.90
11436;DHT22;5774;48.778;8.904;2022-07-29T15:24:07;26.80;99.90
11436;DHT22;5774;48.778;8.904;2022-07-29T15:26:34;26.80;99.90
11436;DHT22;5774;48.778;8.904;2022-07-29T15:29:00;26.70;99.90
11436;DHT22;5774;48.778;8.904;2022-07-29T15:31:27;26.60;99.90
11436;DHT22;5774;48.778;8.904;2022-07-29T15:33:54;26.50;99.90
11436;DHT22;5774;48.778;8.904;2022-07-29T15:36:21;26.40;99.90
11436;DHT22;5774;48.778;8.904;2022-07-29T15:38:51;26.30;99.90
11436;DHT22;5774;48.778;8.904;2022-07-29T15:41:18;26.30;99.90
11436;DHT22;5774;48.778;8.904;2022-07-29T15:43:45;26.20;99.90
11436;DHT22;5774;48.778;8.904;2022-07-29T15:46:13;26.20;99.90
11436;DHT22;5774;48.778;8.904;2022-07-29T15:48:57;26.10;99.90
11436;DHT22;5774;48.778;8.904;2022-07-29T15:51:24;26.00;99.90
11436;DHT22;5774;48.778;8.904;2022-07-29T15:53:52;26.00;99.90
11436;DHT22;5774;48.778;8.904;2022-07-29T15:56:19;26.00;99.90
11436;DHT22;5774;48.778;8.904;2022-07-29T15:58:46;26.10;99.90
11436;DHT22;5774;48.778;8.904;2022-07-29T16:01:12;26.10;99.90
11436;DHT22;5774;48.778;8.904;2022-07-29T16:03:39;26.10;99.90
11436;DHT22;5774;48.778;8.904;2022-07-29T16:06:06;26.00;99.60